sensor_id;sensor_type;location;lat;lon;timestamp;temperature;humidity
22562;DHT22;11447;50.562;8.504;2022-09-29T00:01:17;9.70;99.90
22562;DHT22;11447;50.562;8.504;2022-09-29T00:03:44;9.60;99.90
22562;DHT22;11447;50.562;8.504;2022-09-29T00:06:14;9.60;99.90
22562;DHT22;11447;50.562;8.504;2022-09-29T00:08:41;9.60;99.90
22562;DHT22;11447;50.562;8.504;2022-09-29T00:11:09;9.60;99.90
22562;DHT22;11447;50.562;8.504;2022-09-29T00:13:35;9.60;99.90
22562;DHT22;11447;50.562;8.504;2022-09-29T00:16:04;9.60;99.90
22562;DHT22;11447;50.562;8.504;2022-09-29T00:18:31;9.60;99.90
22562;DHT22;11447;50.562;8.504;2022-09-29T00:21:02;9.60;99.90
22562;DHT22;11447;50.562;8.504;2022-09-29T00:23:32;9.60;99.90
22562;DHT22;11447;50.562;8.504;2022-09-29T00:26:07;9.60;99.90
22562;DHT22;11447;50.562;8.504;2022-09-29T00:28:34;9.60;99.90
22562;DHT22;11447;50.562;8.504;2022-09-29T00:31:01;9.60;99.90
22562;DHT22;11447;50.562;8.504;2022-09-29T00:33:32;9.50;99.90
22562;DHT22;11447;50.562;8.504;2022-09-29T00:36:02;9.40;99.90
22562;DHT22;11447;50.562;8.504;2022-09-29T00:38:29;9.40;99.90
22562;DHT22;11447;50.562;8.504;2022-09-29T00:40:56;9.40;99.90
22562;DHT22;11447;50.562;8.504;2022-09-29T00:43:47;9.40;99.90
22562;DHT22;11447;50.562;8.504;2022-09-29T00:46:10;9.40;99.90
22562;DHT22;11447;50.562;8.504;2022-09-29T00:48:37;9.30;99.90
22562;DHT22;11447;50.562;8.504;2022-09-29T00:51:04;9.30;99.90
22562;DHT22;11447;50.562;8.504;2022-09-29T00:53:31;9.30;99.90
22562;DHT22;11447;50.562;8.504;2022-09-29T00:55:59;9.20;99.90
22562;DHT22;11447;50.562;8.504;2022-09-29T00:58:35;9.20;99.90
22562;DHT22;11447;50.562;8.504;2022-09-29T01:01:03;9.20;99.90
22562;DHT22;11447;50.562;8.504;2022-09-29T01:03:32;9.20;99.90
22562;DHT22;11447;50.562;8.504;2022-09-29T01:06:05;9.20;99.90
22562;DHT22;11447;50.562;8.504;2022-09-29T01:08:37;9.20;99.90
22562;DHT22;11447;50.562;8.504;2022-09-29T01:11:04;9.10;99.90
22562;DHT22;11447;50.562;8.504;2022-09-29T01:13:32;9.10;99.90
22562;DHT22;11447;50.562;8.504;2022-09-29T01:15:59;9.10;99.90
22562;DHT22;11447;50.562;8.504;2022-09-29T01:18:25;9.10;99.90
22562;DHT22;11447;50.562;8.504;2022-09-29T01:31:50;9.10;99.90
22562;DHT22;11447;50.562;8.504;2022-09-29T01:39:35;9.10;99.90
22562;DHT22;11447;50.562;8.504;2022-09-29T01:47:12;9.00;99.90
22562;DHT22;11447;50.562;8.504;2022-09-29T01:49:41;9.00;99.90
22562;DHT22;11447;50.562;8.504;2022-09-29T01:52:15;9.00;99.90
22562;DHT22;11447;50.562;8.504;2022-09-29T01:54:47;9.00;99.90
22562;DHT22;11447;50.562;8.504;2022-09-29T01:57:20;9.00;99.90
22562;DHT22;11447;50.562;8.504;2022-09-29T01:59:55;9.00;99.90
22562;DHT22;11447;50.562;8.504;2022-09-29T02:02:28;9.00;99.90
22562;DHT22;11447;50.562;8.504;2022-09-29T02:04:56;9.00;99.90
22562;DHT22;11447;50.562;8.504;2022-09-29T02:07:28;8.90;99.90
22562;DHT22;11447;50.562;8.504;2022-09-29T02:10:00;8.90;99.90
22562;DHT22;11447;50.562;8.504;2022-09-29T02:12:28;8.80;99.90
22562;DHT22;11447;50.562;8.504;2022-09-29T02:14:57;8.90;99.90
22562;DHT22;11447;50.562;8.504;2022-09-29T02:17:28;8.80;99.90
22562;DHT22;11447;50.562;8.504;2022-09-29T02:19:56;8.80;99.90
22562;DHT22;11447;50.562;8.504;2022-09-29T02:22:22;8.80;99.90
22562;DHT22;11447;50.562;8.504;2022-09-29T02:24:51;8.80;99.90
22562;DHT22;11447;50.562;8.504;2022-09-29T02:27:19;8.70;99.90
22562;DHT22;11447;50.562;8.504;2022-09-29T02:29:46;8.60;99.90
22562;DHT22;11447;50.562;8.504;2022-09-29T02:32:15;8.60;99.90
22562;DHT22;11447;50.562;8.504;2022-09-29T02:34:43;8.60;99.90
22562;DHT22;11447;50.562;8.504;2022-09-29T02:37:16;8.60;99.90
22562;DHT22;11447;50.562;8.504;2022-09-29T02:42:27;8.70;99.90
22562;DHT22;11447;50.562;8.504;2022-09-29T02:45:15;8.70;99.90
22562;DHT22;11447;50.562;8.504;2022-09-29T02:55:23;8.70;99.90
22562;DHT22;11447;50.562;8.504;2022-09-29T02:58:07;8.70;99.90
22562;DHT22;11447;50.562;8.504;2022-09-29T03:00:38;8.70;99.90
22562;DHT22;11447;50.562;8.504;2022-09-29T03:03:07;8.70;99.90
22562;DHT22;11447;50.562;8.504;2022-09-29T03:05:33;8.60;99.90
22562;DHT22;11447;50.562;8.504;2022-09-29T03:08:00;8.60;99.90
22562;DHT22;11447;50.562;8.504;2022-09-29T03:10:27;8.50;99.90
22562;DHT22;11447;50.562;8.504;2022-09-29T03:12:56;8.50;99.90
22562;DHT22;11447;50.562;8.504;2022-09-29T03:15:22;8.40;99.90
22562;DHT22;11447;50.562;8.504;2022-09-29T03:17:49;8.40;99.90
22562;DHT22;11447;50.562;8.504;2022-09-29T03:20:16;8.40;99.90
22562;DHT22;11447;50.562;8.504;2022-09-29T03:22:42;8.40;99.90
22562;DHT22;11447;50.562;8.504;2022-09-29T03:25:10;8.50;99.90
22562;DHT22;11447;50.562;8.504;2022-09-29T03:27:37;8.50;99.90
22562;DHT22;11447;50.562;8.504;2022-09-29T03:30:04;8.40;99.90
22562;DHT22;11447;50.562;8.504;2022-09-29T03:32:36;8.30;99.90
22562;DHT22;11447;50.562;8.504;2022-09-29T03:35:05;8.30;99.90
22562;DHT22;11447;50.562;8.504;2022-09-29T03:37:32;8.40;99.90
22562;DHT22;11447;50.562;8.504;2022-09-29T03:39:58;8.30;99.90
22562;DHT22;11447;50.562;8.504;2022-09-29T03:42:25;8.30;99.90
22562;DHT22;11447;50.562;8.504;2022-09-29T03:44:53;8.30;99.90
22562;DHT22;11447;50.562;8.504;2022-09-29T03:47:21;8.30;99.90
22562;DHT22;11447;50.562;8.504;2022-09-29T03:49:48;8.40;99.90
22562;DHT22;11447;50.562;8.504;2022-09-29T03:52:17;8.30;99.90
22562;DHT22;11447;50.562;8.504;2022-09-29T03:54:46;8.40;99.90
22562;DHT22;11447;50.562;8.504;2022-09-29T03:57:12;8.40;99.90
22562;DHT22;11447;50.562;8.504;2022-09-29T03:59:39;8.40;99.90
22562;DHT22;11447;50.562;8.504;2022-09-29T04:02:11;8.40;99.90
22562;DHT22;11447;50.562;8.504;2022-09-29T04:04:37;8.40;99.90
22562;DHT22;11447;50.562;8.504;2022-09-29T04:07:06;8.40;99.90
22562;DHT22;11447;50.562;8.504;2022-09-29T04:09:33;8.40;99.90
22562;DHT22;11447;50.562;8.504;2022-09-29T04:11:59;8.40;99.90
22562;DHT22;11447;50.562;8.504;2022-09-29T04:14:28;8.30;99.90
22562;DHT22;11447;50.562;8.504;2022-09-29T04:16:55;8.30;99.90
22562;DHT22;11447;50.562;8.504;2022-09-29T04:19:21;8.30;99.90
22562;DHT22;11447;50.562;8.504;2022-09-29T04:21:48;8.20;99.90
22562;DHT22;11447;50.562;8.504;2022-09-29T04:24:16;8.20;99.90
22562;DHT22;11447;50.562;8.504;2022-09-29T04:26:45;8.20;99.90
22562;DHT22;11447;50.562;8.504;2022-09-29T04:29:12;8.20;99.90
22562;DHT22;11447;50.562;8.504;2022-09-29T04:31:38;8.20;99.90
22562;DHT22;11447;50.562;8.504;2022-09-29T04:34:05;8.20;99.90
22562;DHT22;11447;50.562;8.504;2022-09-29T04:36:34;8.10;99.90
22562;DHT22;11447;50.562;8.504;2022-09-29T04:39:01;8.10;99.90
22562;DHT22;11447;50.562;8.504;2022-09-29T04:41:27;8.10;99.90
22562;DHT22;11447;50.562;8.504;2022-09-29T04:43:54;8.00;99.90
22562;DHT22;11447;50.562;8.504;2022-09-29T04:46:20;7.90;99.90
22562;DHT22;11447;50.562;8.504;2022-09-29T04:48:47;8.00;99.90
22562;DHT22;11447;50.562;8.504;2022-09-29T04:51:14;8.00;99.90
22562;DHT22;11447;50.562;8.504;2022-09-29T04:53:40;8.00;99.90
22562;DHT22;11447;50.562;8.504;2022-09-29T04:56:07;8.00;99.90
22562;DHT22;11447;50.562;8.504;2022-09-29T04:58:36;8.00;99.90
22562;DHT22;11447;50.562;8.504;2022-09-29T05:01:04;8.00;99.90
22562;DHT22;11447;50.562;8.504;2022-09-29T05:03:31;8.00;99.90
22562;DHT22;11447;50.562;8.504;2022-09-29T05:05:58;8.10;99.90
22562;DHT22;11447;50.562;8.504;2022-09-29T05:08:24;8.10;99.90
22562;DHT22;11447;50.562;8.504;2022-09-29T05:10:51;8.10;99.90
22562;DHT22;11447;50.562;8.504;2022-09-29T05:13:17;8.10;99.90
22562;DHT22;11447;50.562;8.504;2022-09-29T05:15:44;8.10;99.90
22562;DHT22;11447;50.562;8.504;2022-09-29T05:18:10;8.10;99.90
22562;DHT22;11447;50.562;8.504;2022-09-29T05:20:37;8.10;99.90
22562;DHT22;11447;50.562;8.504;2022-09-29T05:23:20;8.10;99.90
22562;DHT22;11447;50.562;8.504;2022-09-29T05:25:47;8.10;99.90
22562;DHT22;11447;50.562;8.504;2022-09-29T05:28:13;8.10;99.90
22562;DHT22;11447;50.562;8.504;2022-09-29T05:30:40;8.10;99.90
22562;DHT22;11447;50.562;8.504;2022-09-29T05:33:07;8.10;99.90
22562;DHT22;11447;50.562;8.504;2022-09-29T05:35:36;8.10;99.90
22562;DHT22;11447;50.562;8.504;2022-09-29T05:38:03;8.10;99.90
22562;DHT22;11447;50.562;8.504;2022-09-29T05:40:29;8.10;99.90
22562;DHT22;11447;50.562;8.504;2022-09-29T05:42:57;8.10;99.90
22562;DHT22;11447;50.562;8.504;2022-09-29T05:45:26;8.10;99.90
22562;DHT22;11447;50.562;8.504;2022-09-29T05:47:53;8.00;99.90
22562;DHT22;11447;50.562;8.504;2022-09-29T05:50:22;8.00;99.90
22562;DHT22;11447;50.562;8.504;2022-09-29T05:52:48;8.00;99.90
22562;DHT22;11447;50.562;8.504;2022-09-29T05:55:18;8.00;99.90
22562;DHT22;11447;50.562;8.504;2022-09-29T05:57:47;8.00;99.90
22562;DHT22;11447;50.562;8.504;2022-09-29T06:00:14;7.90;99.90
22562;DHT22;11447;50.562;8.504;2022-09-29T06:02:41;7.90;99.90
22562;DHT22;11447;50.562;8.504;2022-09-29T06:05:08;7.90;99.90
22562;DHT22;11447;50.562;8.504;2022-09-29T06:07:34;7.90;99.90
22562;DHT22;11447;50.562;8.504;2022-09-29T06:10:01;7.90;99.90
22562;DHT22;11447;50.562;8.504;2022-09-29T06:12:28;7.90;99.90
22562;DHT22;11447;50.562;8.504;2022-09-29T06:15:00;7.90;99.90
22562;DHT22;11447;50.562;8.504;2022-09-29T06:17:30;7.90;99.90
22562;DHT22;11447;50.562;8.504;2022-09-29T06:19:56;7.90;99.90
22562;DHT22;11447;50.562;8.504;2022-09-29T06:22:23;7.90;99.90
22562;DHT22;11447;50.562;8.504;2022-09-29T06:24:50;8.00;99.90
22562;DHT22;11447;50.562;8.504;2022-09-29T06:27:16;8.00;99.90
22562;DHT22;11447;50.562;8.504;2022-09-29T06:29:43;8.00;99.90
22562;DHT22;11447;50.562;8.504;2022-09-29T06:32:09;8.00;99.90
22562;DHT22;11447;50.562;8.504;2022-09-29T06:34:38;8.10;99.90
22562;DHT22;11447;50.562;8.504;2022-09-29T06:37:25;8.10;99.90
22562;DHT22;11447;50.562;8.504;2022-09-29T06:40:05;8.10;99.90
22562;DHT22;11447;50.562;8.504;2022-09-29T06:42:36;8.10;99.90
22562;DHT22;11447;50.562;8.504;2022-09-29T06:45:04;8.00;99.90
22562;DHT22;11447;50.562;8.504;2022-09-29T06:47:31;8.00;99.90
22562;DHT22;11447;50.562;8.504;2022-09-29T06:49:57;8.10;99.90
22562;DHT22;11447;50.562;8.504;2022-09-29T06:52:46;8.10;99.90
22562;DHT22;11447;50.562;8.504;2022-09-29T06:55:29;8.10;99.90
22562;DHT22;11447;50.562;8.504;2022-09-29T06:57:55;8.10;99.90
22562;DHT22;11447;50.562;8.504;2022-09-29T07:00:29;8.10;99.90
22562;DHT22;11447;50.562;8.504;2022-09-29T07:02:56;8.10;99.90
22562;DHT22;11447;50.562;8.504;2022-09-29T07:05:27;8.20;99.90
22562;DHT22;11447;50.562;8.504;2022-09-29T07:07:54;8.20;99.90
22562;DHT22;11447;50.562;8.504;2022-09-29T07:10:26;8.20;99.90
22562;DHT22;11447;50.562;8.504;2022-09-29T07:12:52;8.20;99.90
22562;DHT22;11447;50.562;8.504;2022-09-29T07:15:23;8.10;99.90
22562;DHT22;11447;50.562;8.504;2022-09-29T07:17:57;8.10;99.90
22562;DHT22;11447;50.562;8.504;2022-09-29T07:20:24;8.10;99.90
22562;DHT22;11447;50.562;8.504;2022-09-29T07:22:54;8.10;99.90
22562;DHT22;11447;50.562;8.504;2022-09-29T07:25:23;8.10;99.90
22562;DHT22;11447;50.562;8.504;2022-09-29T07:28:09;8.10;99.90
22562;DHT22;11447;50.562;8.504;2022-09-29T07:30:36;8.20;99.90
22562;DHT22;11447;50.562;8.504;2022-09-29T07:33:06;8.20;99.90
22562;DHT22;11447;50.562;8.504;2022-09-29T07:35:33;8.20;99.90
22562;DHT22;11447;50.562;8.504;2022-09-29T07:38:05;8.20;99.90
22562;DHT22;11447;50.562;8.504;2022-09-29T07:40:34;8.30;99.90
22562;DHT22;11447;50.562;8.504;2022-09-29T07:43:00;8.30;99.90
22562;DHT22;11447;50.562;8.504;2022-09-29T07:45:27;8.30;99.90
22562;DHT22;11447;50.562;8.504;2022-09-29T07:47:55;8.30;99.90
22562;DHT22;11447;50.562;8.504;2022-09-29T07:50:21;8.40;99.90
22562;DHT22;11447;50.562;8.504;2022-09-29T07:52:50;8.40;99.90
22562;DHT22;11447;50.562;8.504;2022-09-29T07:55:18;8.40;99.90
22562;DHT22;11447;50.562;8.504;2022-09-29T07:57:46;8.40;99.90
22562;DHT22;11447;50.562;8.504;2022-09-29T08:00:18;8.50;99.90
22562;DHT22;11447;50.562;8.504;2022-09-29T08:02:47;8.50;99.90
22562;DHT22;11447;50.562;8.504;2022-09-29T08:05:13;8.50;99.90
22562;DHT22;11447;50.562;8.504;2022-09-29T08:07:40;8.50;99.90
22562;DHT22;11447;50.562;8.504;2022-09-29T08:10:07;8.60;99.90
22562;DHT22;11447;50.562;8.504;2022-09-29T08:12:42;8.60;99.90
22562;DHT22;11447;50.562;8.504;2022-09-29T08:15:10;8.60;99.90
22562;DHT22;11447;50.562;8.504;2022-09-29T08:17:36;8.70;99.90
22562;DHT22;11447;50.562;8.504;2022-09-29T08:20:03;8.70;99.90
22562;DHT22;11447;50.562;8.504;2022-09-29T08:22:30;8.70;99.90
22562;DHT22;11447;50.562;8.504;2022-09-29T08:24:56;8.70;99.90
22562;DHT22;11447;50.562;8.504;2022-09-29T08:27:24;8.80;99.90
22562;DHT22;11447;50.562;8.504;2022-09-29T08:29:50;8.80;99.90
22562;DHT22;11447;50.562;8.504;2022-09-29T08:32:17;8.90;99.90
22562;DHT22;11447;50.562;8.504;2022-09-29T08:34:46;8.90;99.90
22562;DHT22;11447;50.562;8.504;2022-09-29T08:37:12;8.90;99.90
22562;DHT22;11447;50.562;8.504;2022-09-29T08:39:39;8.90;99.90
22562;DHT22;11447;50.562;8.504;2022-09-29T08:47:17;9.00;99.90
22562;DHT22;11447;50.562;8.504;2022-09-29T08:49:52;9.10;99.90
22562;DHT22;11447;50.562;8.504;2022-09-29T08:52:30;9.10;99.90
22562;DHT22;11447;50.562;8.504;2022-09-29T08:57:48;9.20;99.90
22562;DHT22;11447;50.562;8.504;2022-09-29T09:00:26;9.30;99.90
22562;DHT22;11447;50.562;8.504;2022-09-29T09:03:01;9.40;99.90
22562;DHT22;11447;50.562;8.504;2022-09-29T09:23:22;9.60;99.90
22562;DHT22;11447;50.562;8.504;2022-09-29T09:25:54;9.60;99.90
22562;DHT22;11447;50.562;8.504;2022-09-29T09:28:26;9.60;99.90
22562;DHT22;11447;50.562;8.504;2022-09-29T09:30:54;9.60;99.90
22562;DHT22;11447;50.562;8.504;2022-09-29T09:33:42;9.70;99.90
22562;DHT22;11447;50.562;8.504;2022-09-29T09:39:46;9.90;99.90
22562;DHT22;11447;50.562;8.504;2022-09-29T09:41:43;10.00;99.90
22562;DHT22;11447;50.562;8.504;2022-09-29T09:46:57;10.00;99.90
22562;DHT22;11447;50.562;8.504;2022-09-29T09:49:44;10.10;99.90
22562;DHT22;11447;50.562;8.504;2022-09-29T09:52:17;10.10;99.90
22562;DHT22;11447;50.562;8.504;2022-09-29T09:54:49;10.20;99.90
22562;DHT22;11447;50.562;8.504;2022-09-29T10:02:27;10.10;99.90
22562;DHT22;11447;50.562;8.504;2022-09-29T10:04:57;10.10;99.90
22562;DHT22;11447;50.562;8.504;2022-09-29T10:07:24;10.10;99.90
22562;DHT22;11447;50.562;8.504;2022-09-29T10:09:53;10.10;99.90
22562;DHT22;11447;50.562;8.504;2022-09-29T10:12:21;10.20;99.90
22562;DHT22;11447;50.562;8.504;2022-09-29T10:14:53;10.20;99.90
22562;DHT22;11447;50.562;8.504;2022-09-29T10:17:24;10.20;99.90
22562;DHT22;11447;50.562;8.504;2022-09-29T10:22:26;10.40;99.90
22562;DHT22;11447;50.562;8.504;2022-09-29T10:24:53;10.40;99.90
22562;DHT22;11447;50.562;8.504;2022-09-29T10:27:30;10.50;99.90
22562;DHT22;11447;50.562;8.504;2022-09-29T10:29:57;10.40;99.90
22562;DHT22;11447;50.562;8.504;2022-09-29T10:32:28;10.50;99.90
22562;DHT22;11447;50.562;8.504;2022-09-29T10:35:04;10.70;99.90
22562;DHT22;11447;50.562;8.504;2022-09-29T10:37:37;10.80;99.90
22562;DHT22;11447;50.562;8.504;2022-09-29T10:42:34;10.80;99.90
22562;DHT22;11447;50.562;8.504;2022-09-29T10:47:40;11.00;99.90
22562;DHT22;11447;50.562;8.504;2022-09-29T10:52:33;11.10;99.90
22562;DHT22;11447;50.562;8.504;2022-09-29T10:55:01;11.20;99.90
22562;DHT22;11447;50.562;8.504;2022-09-29T10:57:33;11.10;99.90
22562;DHT22;11447;50.562;8.504;2022-09-29T11:00:01;11.10;99.90
22562;DHT22;11447;50.562;8.504;2022-09-29T11:02:29;11.30;99.90
22562;DHT22;11447;50.562;8.504;2022-09-29T11:04:59;11.40;99.90
22562;DHT22;11447;50.562;8.504;2022-09-29T11:07:29;11.60;99.90
22562;DHT22;11447;50.562;8.504;2022-09-29T11:09:57;11.70;99.90
22562;DHT22;11447;50.562;8.504;2022-09-29T11:14:50;11.80;99.90
22562;DHT22;11447;50.562;8.504;2022-09-29T11:17:27;11.80;99.90
22562;DHT22;11447;50.562;8.504;2022-09-29T11:20:00;11.80;99.90
22562;DHT22;11447;50.562;8.504;2022-09-29T11:25:12;11.90;99.90
22562;DHT22;11447;50.562;8.504;2022-09-29T11:30:23;11.90;99.90
22562;DHT22;11447;50.562;8.504;2022-09-29T11:38:08;12.20;99.90
22562;DHT22;11447;50.562;8.504;2022-09-29T11:40:48;12.30;99.90
22562;DHT22;11447;50.562;8.504;2022-09-29T12:01:30;12.70;99.90
22562;DHT22;11447;50.562;8.504;2022-09-29T12:06:48;12.60;99.90
22562;DHT22;11447;50.562;8.504;2022-09-29T12:15:02;12.60;99.90
22562;DHT22;11447;50.562;8.504;2022-09-29T12:17:34;12.80;99.90
22562;DHT22;11447;50.562;8.504;2022-09-29T12:20:13;12.90;99.90
22562;DHT22;11447;50.562;8.504;2022-09-29T12:22:42;12.90;99.90
22562;DHT22;11447;50.562;8.504;2022-09-29T12:25:14;12.90;99.90
22562;DHT22;11447;50.562;8.504;2022-09-29T12:27:41;13.00;99.90
22562;DHT22;11447;50.562;8.504;2022-09-29T12:32:43;13.20;99.90
22562;DHT22;11447;50.562;8.504;2022-09-29T12:40:25;13.40;99.90
22562;DHT22;11447;50.562;8.504;2022-09-29T12:43:20;13.50;99.90
22562;DHT22;11447;50.562;8.504;2022-09-29T13:01:53;13.60;99.90
22562;DHT22;11447;50.562;8.504;2022-09-29T13:09:29;13.60;99.90
22562;DHT22;11447;50.562;8.504;2022-09-29T13:19:38;13.80;99.90
22562;DHT22;11447;50.562;8.504;2022-09-29T13:25:03;13.80;99.90
22562;DHT22;11447;50.562;8.504;2022-09-29T13:27:37;13.80;99.90
22562;DHT22;11447;50.562;8.504;2022-09-29T13:30:11;13.90;99.90
22562;DHT22;11447;50.562;8.504;2022-09-29T13:32:49;13.90;99.90
22562;DHT22;11447;50.562;8.504;2022-09-29T13:35:19;13.90;99.90
22562;DHT22;11447;50.562;8.504;2022-09-29T13:37:50;13.80;99.90
22562;DHT22;11447;50.562;8.504;2022-09-29T13:40:24;13.80;99.90
22562;DHT22;11447;50.562;8.504;2022-09-29T13:43:01;13.80;99.90
22562;DHT22;11447;50.562;8.504;2022-09-29T13:48:46;13.80;99.90
22562;DHT22;11447;50.562;8.504;2022-09-29T13:50:51;13.80;99.90
22562;DHT22;11447;50.562;8.504;2022-09-29T13:58:25;13.80;99.90
22562;DHT22;11447;50.562;8.504;2022-09-29T14:00:53;13.80;99.90
22562;DHT22;11447;50.562;8.504;2022-09-29T14:03:21;13.90;99.90
22562;DHT22;11447;50.562;8.504;2022-09-29T14:05:57;14.00;99.90
22562;DHT22;11447;50.562;8.504;2022-09-29T14:09:07;14.00;99.90
22562;DHT22;11447;50.562;8.504;2022-09-29T14:11:41;14.00;99.90
22562;DHT22;11447;50.562;8.504;2022-09-29T14:19:23;14.30;99.90
22562;DHT22;11447;50.562;8.504;2022-09-29T14:27:27;14.40;99.90
22562;DHT22;11447;50.562;8.504;2022-09-29T14:32:37;14.50;99.90
22562;DHT22;11447;50.562;8.504;2022-09-29T14:37:58;14.40;99.90
22562;DHT22;11447;50.562;8.504;2022-09-29T14:40:26;14.40;99.90
22562;DHT22;11447;50.562;8.504;2022-09-29T14:43:02;14.40;99.90
22562;DHT22;11447;50.562;8.504;2022-09-29T14:45:34;14.30;99.90
22562;DHT22;11447;50.562;8.504;2022-09-29T14:48:30;14.40;99.90
22562;DHT22;11447;50.562;8.504;2022-09-29T14:51:21;14.40;99.90
22562;DHT22;11447;50.562;8.504;2022-09-29T15:02:26;14.50;99.90
22562;DHT22;11447;50.562;8.504;2022-09-29T15:04:54;14.60;99.90
22562;DHT22;11447;50.562;8.504;2022-09-29T15:07:24;14.60;99.90
22562;DHT22;11447;50.562;8.504;2022-09-29T15:09:54;14.60;99.90
22562;DHT22;11447;50.562;8.504;2022-09-29T15:12:22;14.60;99.90
22562;DHT22;11447;50.562;8.504;2022-09-29T15:14:52;14.60;99.90
22562;DHT22;11447;50.562;8.504;2022-09-29T15:20:21;14.60;99.80
22562;DHT22;11447;50.562;8.504;2022-09-29T15:27:50;14.60;99.30
22562;DHT22;11447;50.562;8.504;2022-09-29T15:30:20;14.60;99.70
22562;DHT22;11447;50.562;8.504;2022-09-29T15:32:47;14.60;99.90
22562;DHT22;11447;50.562;8.504;2022-09-29T15:35:20;14.60;99.90
22562;DHT22;11447;50.562;8.504;2022-09-29T15:37:57;14.50;98.60
22562;DHT22;11447;50.562;8.504;2022-09-29T15:40:26;14.50;98.70
22562;DHT22;11447;50.562;8.504;2022-09-29T15:42:53;14.50;99.90
22562;DHT22;11447;50.562;8.504;2022-09-29T15:45:23;14.50;99.50
22562;DHT22;11447;50.562;8.504;2022-09-29T15:47:59;14.50;99.20
22562;DHT22;11447;50.562;8.504;2022-09-29T15:50:29;14.50;98.10
22562;DHT22;11447;50.562;8.504;2022-09-29T15:52:58;14.40;99.10
22562;DHT22;11447;50.562;8.504;2022-09-29T15:55:31;14.40;98.50
22562;DHT22;11447;50.562;8.504;2022-09-29T15:57:58;14.30;99.70
22562;DHT22;11447;50.562;8.504;2022-09-29T16:03:04;14.20;98.80
22562;DHT22;11447;50.562;8.504;2022-09-29T16:05:32;14.20;99.10
22562;DHT22;11447;50.562;8.504;2022-09-29T16:08:21;14.20;99.50
22562;DHT22;11447;50.562;8.504;2022-09-29T16:10:52;14.20;99.90
22562;DHT22;11447;50.562;8.504;2022-09-29T16:13:24;14.20;99.30
22562;DHT22;11447;50.562;8.504;2022-09-29T16:15:56;14.20;99.80
22562;DHT22;11447;50.562;8.504;2022-09-29T16:18:24;14.20;99.70
22562;DHT22;11447;50.562;8.504;2022-09-29T16:20:52;14.10;99.70
22562;DHT22;11447;50.562;8.504;2022-09-29T16:23:33;14.10;99.90
22562;DHT22;11447;50.562;8.504;2022-09-29T16:28:34;14.10;99.90
22562;DHT22;11447;50.562;8.504;2022-09-29T16:31:20;14.10;99.70
22562;DHT22;11447;50.562;8.504;2022-09-29T16:33:52;14.00;99.90
22562;DHT22;11447;50.562;8.504;2022-09-29T16:36:23;13.90;99.90
22562;DHT22;11447;50.562;8.504;2022-09-29T16:38:50;13.80;99.80
22562;DHT22;11447;50.562;8.504;2022-09-29T16:43:45;13.70;99.90
22562;DHT22;11447;50.562;8.504;2022-09-29T16:46:15;13.70;99.90
22562;DHT22;11447;50.562;8.504;2022-09-29T16:48:44;13.70;99.90
22562;DHT22;11447;50.562;8.504;2022-09-29T16:51:15;13.70;99.90
22562;DHT22;11447;50.562;8.504;2022-09-29T16:54:02;13.70;99.90
22562;DHT22;11447;50.562;8.504;2022-09-29T16:56:29;13.70;99.90
22562;DHT22;11447;50.562;8.504;2022-09-29T16:59:02;13.70;99.90
22562;DHT22;11447;50.562;8.504;2022-09-29T17:01:29;13.70;99.90
22562;DHT22;11447;50.562;8.504;2022-09-29T17:03:56;13.60;99.90
22562;DHT22;11447;50.562;8.504;2022-09-29T17:06:22;13.50;99.90
22562;DHT22;11447;50.562;8.504;2022-09-29T17:08:49;13.50;99.90
22562;DHT22;11447;50.562;8.504;2022-09-29T17:11:20;13.40;99.90
22562;DHT22;11447;50.562;8.504;2022-09-29T17:13:49;13.30;99.90
22562;DHT22;11447;50.562;8.504;2022-09-29T17:16:18;13.20;99.90
22562;DHT22;11447;50.562;8.504;2022-09-29T17:18:49;13.10;99.90
22562;DHT22;11447;50.562;8.504;2022-09-29T17:21:16;13.10;99.90
22562;DHT22;11447;50.562;8.504;2022-09-29T17:23:43;13.00;99.90
22562;DHT22;11447;50.562;8.504;2022-09-29T17:26:17;13.00;99.90
22562;DHT22;11447;50.562;8.504;2022-09-29T17:29:02;12.90;99.90
22562;DHT22;11447;50.562;8.504;2022-09-29T17:31:29;12.80;99.90
22562;DHT22;11447;50.562;8.504;2022-09-29T17:33:56;12.80;99.90
22562;DHT22;11447;50.562;8.504;2022-09-29T17:36:22;12.70;99.90
22562;DHT22;11447;50.562;8.504;2022-09-29T17:38:52;12.60;99.90
22562;DHT22;11447;50.562;8.504;2022-09-29T17:41:18;12.50;99.90
22562;DHT22;11447;50.562;8.504;2022-09-29T17:43:48;12.50;99.90
22562;DHT22;11447;50.562;8.504;2022-09-29T17:46:17;12.50;99.90
22562;DHT22;11447;50.562;8.504;2022-09-29T17:48:46;12.40;99.90
22562;DHT22;11447;50.562;8.504;2022-09-29T17:51:13;12.40;99.90
22562;DHT22;11447;50.562;8.504;2022-09-29T17:53:43;12.30;99.90
22562;DHT22;11447;50.562;8.504;2022-09-29T17:56:20;12.70;99.90
22562;DHT22;11447;50.562;8.504;2022-09-29T17:58:48;12.20;99.90
22562;DHT22;11447;50.562;8.504;2022-09-29T18:01:17;12.20;99.90
22562;DHT22;11447;50.562;8.504;2022-09-29T18:03:45;12.10;99.90
22562;DHT22;11447;50.562;8.504;2022-09-29T18:06:19;12.00;99.90
22562;DHT22;11447;50.562;8.504;2022-09-29T18:08:52;11.90;99.90
22562;DHT22;11447;50.562;8.504;2022-09-29T18:11:20;11.90;99.90
22562;DHT22;11447;50.562;8.504;2022-09-29T18:13:47;11.80;99.90
22562;DHT22;11447;50.562;8.504;2022-09-29T18:16:15;11.80;99.90
22562;DHT22;11447;50.562;8.504;2022-09-29T18:18:42;11.80;99.90
22562;DHT22;11447;50.562;8.504;2022-09-29T18:21:08;11.70;99.90
22562;DHT22;11447;50.562;8.504;2022-09-29T18:23:35;11.70;99.90
22562;DHT22;11447;50.562;8.504;2022-09-29T18:26:03;11.60;99.90
22562;DHT22;11447;50.562;8.504;2022-09-29T18:28:34;11.60;99.90
22562;DHT22;11447;50.562;8.504;2022-09-29T18:31:05;11.50;99.90
22562;DHT22;11447;50.562;8.504;2022-09-29T18:33:37;11.50;99.90
22562;DHT22;11447;50.562;8.504;2022-09-29T18:36:04;11.40;99.90
22562;DHT22;11447;50.562;8.504;2022-09-29T18:38:31;11.40;99.90
22562;DHT22;11447;50.562;8.504;2022-09-29T18:40:57;11.30;99.90
22562;DHT22;11447;50.562;8.504;2022-09-29T18:43:24;11.30;99.90
22562;DHT22;11447;50.562;8.504;2022-09-29T18:45:51;11.20;99.90
22562;DHT22;11447;50.562;8.504;2022-09-29T18:48:18;11.20;99.90
22562;DHT22;11447;50.562;8.504;2022-09-29T18:50:45;11.20;99.90
22562;DHT22;11447;50.562;8.504;2022-09-29T18:53:16;11.10;99.90
22562;DHT22;11447;50.562;8.504;2022-09-29T18:55:43;11.10;99.90
22562;DHT22;11447;50.562;8.504;2022-09-29T18:58:13;11.00;99.90
22562;DHT22;11447;50.562;8.504;2022-09-29T19:00:40;11.00;99.90
22562;DHT22;11447;50.562;8.504;2022-09-29T19:03:08;10.90;99.90
22562;DHT22;11447;50.562;8.504;2022-09-29T19:05:35;10.90;99.90
22562;DHT22;11447;50.562;8.504;2022-09-29T19:08:05;10.80;99.90
22562;DHT22;11447;50.562;8.504;2022-09-29T19:10:32;10.80;99.90
22562;DHT22;11447;50.562;8.504;2022-09-29T19:13:00;10.70;99.90
22562;DHT22;11447;50.562;8.504;2022-09-29T19:15:29;10.70;99.90
22562;DHT22;11447;50.562;8.504;2022-09-29T19:18:01;10.70;99.90
22562;DHT22;11447;50.562;8.504;2022-09-29T19:20:30;10.60;99.90
22562;DHT22;11447;50.562;8.504;2022-09-29T19:22:57;10.60;99.90